Time;durP1;ratioP1;P1;durP2;ratioP2;P2;SDS_P1;SDS_P2;PMS_P1;PMS_P2;Temp;Humidity;BMP_temperature;BMP_pressure;BME280_temperature;BME280_humidity;BME280_pressure;Samples;Min_cycle;Max_cycle;Signal;HPM_P1;HPM_P2
2024/04/07 00:01:19;;;;;;;2.58;1.77;;;;;;;17.25;88.72;98215.56;6112685;19;20006;-71
2024/04/07 00:03:20;;;;;;;3.67;1.63;;;;;;;17.20;90.21;98207.66;6111787;19;20094;-71
2024/04/07 00:05:20;;;;;;;2.90;1.73;;;;;;;17.16;85.68;98206.94;6112563;19;20334;-71
2024/04/07 00:07:20;;;;;;;3.00;1.55;;;;;;;17.17;84.81;98207.72;6111914;19;20037;-71
2024/04/07 00:09:21;;;;;;;2.08;1.40;;;;;;;17.12;85.21;98197.81;6110468;19;20006;-71
2024/04/07 00:11:22;;;;;;;2.28;1.30;;;;;;;17.11;85.14;98197.03;6112143;19;20010;-71
2024/04/07 00:13:23;;;;;;;1.83;1.30;;;;;;;17.12;84.10;98201.41;6112238;19;19991;-71
2024/04/07 00:15:23;;;;;;;2.20;1.50;;;;;;;17.17;83.65;98193.75;6112793;19;20002;-72
2024/04/07 00:17:24;;;;;;;2.70;1.70;;;;;;;17.20;83.19;98187.31;6111563;19;20762;-71
2024/04/07 00:19:24;;;;;;;7.57;1.40;;;;;;;17.19;87.77;98191.31;6111000;19;20425;-72
2024/04/07 00:21:27;;;;;;;1.77;1.40;;;;;;;17.11;86.15;98188.66;6110909;19;20314;-72
2024/04/07 00:23:27;;;;;;;;;;;;;;;17.04;86.08;98188.78;6113178;19;20439;-71
2024/04/07 00:25:27;;;;;;;1.85;1.40;;;;;;;16.97;87.21;98188.16;6111410;19;19918;-71
2024/04/07 00:27:28;;;;;;;3.15;1.60;;;;;;;16.87;87.96;98175.16;6111632;19;20017;-71
2024/04/07 00:29:28;;;;;;;2.58;1.35;;;;;;;16.81;90.60;98170.06;6111556;19;20013;-71
2024/04/07 00:31:28;;;;;;;2.22;1.40;;;;;;;16.83;88.32;98176.03;6111544;19;20395;-71
2024/04/07 00:33:29;;;;;;;2.15;1.45;;;;;;;16.82;89.62;98170.88;6111300;19;20501;-71
2024/04/07 00:35:29;;;;;;;2.17;1.45;;;;;;;16.79;95.31;98171.69;6111311;19;20312;-71
2024/04/07 00:37:30;;;;;;;2.80;1.40;;;;;;;16.80;87.70;98170.50;6110698;19;20014;-71
2024/04/07 00:39:30;;;;;;;2.33;1.50;;;;;;;16.77;87.24;98169.34;6111051;19;20085;-71
2024/04/07 00:41:30;;;;;;;2.28;1.27;;;;;;;16.77;88.81;98166.53;6112117;19;20321;-71
2024/04/07 00:43:31;;;;;;;2.55;1.63;;;;;;;16.75;87.58;98168.97;6111530;19;20491;-71
2024/04/07 00:45:31;;;;;;;3.00;1.45;;;;;;;16.71;88.81;98171.03;6111758;19;20558;-71
2024/04/07 00:47:31;;;;;;;1.73;1.30;;;;;;;16.69;92.42;98167.88;6110821;19;20459;-71
2024/04/07 00:49:34;;;;;;;1.90;1.60;;;;;;;16.66;91.39;98160.34;6110577;19;20003;-71
2024/04/07 00:51:35;;;;;;;1.92;1.50;;;;;;;16.61;90.07;98160.81;6110955;19;20359;-71
2024/04/07 00:53:36;;;;;;;5.63;1.83;;;;;;;16.60;90.17;98156.44;6109105;19;20380;-71
2024/04/07 00:55:37;;;;;;;3.45;1.38;;;;;;;16.48;91.70;98157.88;6111326;19;20284;-71
2024/04/07 00:57:38;;;;;;;2.00;1.25;;;;;;;16.44;92.64;98148.75;6110445;19;20078;-71
2024/04/07 00:59:39;;;;;;;2.05;1.50;;;;;;;16.39;91.45;98156.84;6110802;19;20333;-71
2024/04/07 01:01:39;;;;;;;2.03;1.38;;;;;;;16.33;92.83;98162.09;6111641;19;20017;-71
2024/04/07 01:03:39;;;;;;;2.00;1.40;;;;;;;16.27;98.16;98159.00;6111933;19;20337;-71
2024/04/07 01:05:41;;;;;;;3.22;1.30;;;;;;;16.24;95.13;98154.28;6110008;19;20006;-71
2024/04/07 01:07:41;;;;;;;3.65;1.60;;;;;;;16.20;96.03;98153.53;6109859;19;20011;-71
2024/04/07 01:09:42;;;;;;;4.55;1.50;;;;;;;16.17;93.46;98153.59;6110676;19;20105;-72
2024/04/07 01:11:42;;;;;;;2.47;1.50;;;;;;;16.13;93.96;98159.22;6111780;19;20010;-72
2024/04/07 01:13:43;;;;;;;2.17;1.15;;;;;;;16.10;91.58;98154.50;6110804;19;20274;-71
2024/04/07 01:15:43;;;;;;;2.53;1.30;;;;;;;16.04;95.83;98153.38;6111227;19;20009;-71
2024/04/07 01:17:44;;;;;;;3.65;1.80;;;;;;;15.96;93.21;98146.34;6110613;19;20006;-71
2024/04/07 01:19:45;;;;;;;1.70;1.25;;;;;;;15.90;93.06;98156.41;6109926;19;20306;-71
2024/04/07 01:21:45;;;;;;;2.47;1.50;;;;;;;15.85;93.13;98160.44;6110140;19;20044;-71
2024/04/07 01:23:45;;;;;;;1.52;1.30;;;;;;;15.83;97.96;98160.09;6111441;19;20006;-71
2024/04/07 01:25:46;;;;;;;2.17;1.60;;;;;;;15.79;100.00;98158.56;6109587;19;20058;-71
2024/04/07 01:27:51;;;;;;;2.60;1.40;;;;;;;15.74;95.57;98154.25;6110243;19;20006;-71
2024/04/07 01:29:51;;;;;;;3.67;1.42;;;;;;;15.71;97.20;98150.28;6109862;19;20007;-71
2024/04/07 01:31:52;;;;;;;2.25;1.48;;;;;;;15.75;95.20;98155.03;6110786;19;20007;-71
2024/04/07 01:33:53;;;;;;;3.08;1.65;;;;;;;15.81;90.98;98154.16;6109873;19;20002;-71
2024/04/07 01:35:54;;;;;;;2.15;1.20;;;;;;;15.89;94.16;98149.25;6109903;19;20006;-71
2024/04/07 01:37:54;;;;;;;2.22;1.33;;;;;;;15.93;93.73;98147.19;6109946;19;20033;-71
2024/04/07 01:39:55;;;;;;;2.72;1.50;;;;;;;15.98;98.15;98146.72;6110362;19;20066;-71
2024/04/07 01:41:56;;;;;;;4.60;1.73;;;;;;;16.05;92.90;98145.81;6110094;19;20006;-72
2024/04/07 01:43:56;;;;;;;3.35;1.40;;;;;;;16.15;89.42;98142.06;6110179;19;20018;-72
2024/04/07 01:45:56;;;;;;;3.13;1.17;;;;;;;16.23;89.41;98152.69;6110434;19;20003;-72
2024/04/07 01:47:57;;;;;;;1.90;1.30;;;;;;;16.34;85.51;98137.78;6108774;19;20070;-71
2024/04/07 01:49:57;;;;;;;4.00;1.20;;;;;;;16.56;82.42;98130.59;6109344;19;20500;-72
2024/04/07 01:51:57;;;;;;;3.15;1.73;;;;;;;16.74;81.02;98133.09;6110126;19;20277;-71
2024/04/07 01:53:58;;;;;;;2.40;1.40;;;;;;;16.88;79.75;98124.44;6109755;19;19998;-71
2024/04/07 01:55:58;;;;;;;2.75;1.17;;;;;;;17.00;74.91;98123.81;6109368;19;20010;-72
2024/04/07 01:57:58;;;;;;;3.08;1.05;;;;;;;17.33;72.61;98118.34;6109434;19;20002;-72
2024/04/07 01:59:59;;;;;;;3.33;1.30;;;;;;;17.44;69.24;98118.88;6109332;19;20565;-71
2024/04/07 02:01:59;;;;;;;3.20;1.50;;;;;;;17.56;69.40;98114.66;6109890;19;20493;-71
2024/04/07 02:03:59;;;;;;;1.77;1.15;;;;;;;17.67;65.83;98113.19;6109271;19;20003;-71
2024/04/07 02:06:03;;;;;;;4.72;1.23;;;;;;;17.83;65.89;98125.66;6108151;19;20046;-71
2024/04/07 02:08:04;;;;;;;2.55;1.05;;;;;;;17.90;62.46;98112.28;6108527;19;20013;-72
2024/04/07 02:10:04;;;;;;;2.70;1.08;;;;;;;17.98;68.46;98123.31;6108547;19;20054;-72
2024/04/07 02:12:05;;;;;;;1.98;1.15;;;;;;;17.99;68.09;98122.09;6108674;19;20006;-72
2024/04/07 02:14:05;;;;;;;2.13;1.10;;;;;;;18.14;65.09;98115.72;6110186;19;20014;-71
2024/04/07 02:16:06;;;;;;;4.30;1.20;;;;;;;18.16;61.77;98113.25;6100963;19;20534;-71
2024/04/07 02:18:06;;;;;;;2.30;1.00;;;;;;;18.21;61.19;98111.97;6106642;19;20304;-71
2024/04/07 02:20:08;;;;;;;2.38;1.25;;;;;;;18.35;61.33;98099.59;6108444;19;20033;-71
2024/04/07 02:22:08;;;;;;;2.47;1.13;;;;;;;18.38;59.27;98081.94;6108759;19;20007;-71
2024/04/07 02:24:09;;;;;;;1.70;1.20;;;;;;;18.43;60.73;98096.16;6109456;19;20621;-72
2024/04/07 02:26:10;;;;;;;1.95;1.10;;;;;;;18.47;59.42;98088.47;6108891;19;20003;-72
2024/04/07 02:28:10;;;;;;;1.27;1.10;;;;;;;18.46;62.54;98095.31;6107928;19;20090;-72
2024/04/07 02:30:10;;;;;;;2.72;1.35;;;;;;;18.38;60.73;98090.31;6108102;19;20003;-72
2024/04/07 02:32:11;;;;;;;1.05;0.95;;;;;;;18.48;59.95;98086.44;6108334;19;20007;-72
2024/04/07 02:34:12;;;;;;;1.95;1.02;;;;;;;18.41;60.21;98087.41;6109074;19;20383;-72
2024/04/07 02:36:13;;;;;;;1.98;1.27;;;;;;;18.33;63.92;98085.25;6107526;19;20464;-72
2024/04/07 02:38:13;;;;;;;1.50;1.10;;;;;;;18.23;63.52;98078.69;6107717;19;19999;-72
2024/04/07 02:40:14;;;;;;;2.33;1.10;;;;;;;18.13;63.92;98076.97;6109159;19;20009;-72
2024/04/07 02:42:15;;;;;;;1.70;1.15;;;;;;;18.08;62.82;98075.47;6108417;19;20014;-72
2024/04/07 02:44:16;;;;;;;2.08;1.35;;;;;;;18.08;64.41;98063.47;6108830;19;20025;-72
2024/04/07 02:48:35;;;;;;;1.80;1.13;;;;;;;18.11;61.07;98066.19;6108818;19;20014;-71
2024/04/07 02:50:36;;;;;;;2.75;1.40;;;;;;;18.20;62.88;98057.16;6109165;19;20006;-71
2024/04/07 02:52:36;;;;;;;1.80;1.20;;;;;;;18.14;61.43;98058.94;6109424;19;20078;-71
2024/04/07 02:54:36;;;;;;;2.17;1.00;;;;;;;18.15;63.21;98057.72;6109357;19;20438;-71
2024/04/07 02:56:37;;;;;;;2.78;1.10;;;;;;;18.11;62.88;98068.97;6109718;19;20010;-71
2024/04/07 02:58:38;;;;;;;3.80;1.20;;;;;;;18.07;59.45;98062.69;6107051;19;20012;-71
2024/04/07 03:00:38;;;;;;;1.50;1.00;;;;;;;18.12;59.64;98064.97;6108634;19;20707;-71
2024/04/07 03:02:41;;;;;;;3.45;1.77;;;;;;;18.13;58.51;98076.97;6108924;19;20007;-71
2024/04/07 03:04:41;;;;;;;2.30;1.30;;;;;;;18.08;58.98;98078.25;6109353;19;20475;-71
2024/04/07 03:06:42;;;;;;;2.67;1.23;;;;;;;18.05;59.97;98069.97;6107979;19;20017;-71
2024/04/07 03:08:42;;;;;;;1.80;1.23;;;;;;;18.00;61.02;98074.06;6108125;19;20364;-71
2024/04/07 03:10:43;;;;;;;2.65;1.10;;;;;;;17.96;59.07;98062.97;6107480;19;20458;-71
2024/04/07 03:12:44;;;;;;;4.88;1.48;;;;;;;17.91;61.04;98065.50;6109334;19;20466;-71
2024/04/07 03:14:44;;;;;;;1.02;0.82;;;;;;;17.92;59.48;98079.03;6108789;19;20013;-71
2024/04/07 03:16:46;;;;;;;2.10;1.45;;;;;;;17.88;60.88;98061.56;6102056;19;20027;-71
2024/04/07 03:18:46;;;;;;;1.90;1.30;;;;;;;17.86;58.97;98075.19;6098926;19;20010;-71
2024/04/07 03:20:47;;;;;;;1.80;1.10;;;;;;;17.84;60.33;98079.66;6101512;19;20007;-71
2024/04/07 03:22:47;;;;;;;1.55;1.00;;;;;;;17.78;60.75;98084.19;6101380;19;20241;-71
2024/04/07 03:24:48;;;;;;;1.42;1.00;;;;;;;17.73;60.18;98085.50;6101458;19;20015;-71
2024/04/07 03:26:48;;;;;;;4.30;1.23;;;;;;;17.75;63.00;98102.66;6101054;19;20007;-72
2024/04/07 03:28:49;;;;;;;3.28;0.93;;;;;;;17.99;51.12;98122.88;6100222;19;20792;-72
2024/04/07 03:30:52;;;;;;;2.25;1.13;;;;;;;18.36;49.11;98132.75;6100634;19;20428;-72
2024/04/07 03:32:52;;;;;;;1.75;1.02;;;;;;;18.88;48.42;98148.66;6101185;19;20011;-72
2024/04/07 03:34:52;;;;;;;2.25;1.20;;;;;;;19.24;47.77;98161.69;6100646;19;20010;-72
2024/04/07 03:36:52;;;;;;;1.67;1.00;;;;;;;19.30;48.17;98169.13;6102116;19;20320;-72
2024/04/07 03:38:53;;;;;;;2.03;1.17;;;;;;;19.31;48.55;98164.28;6099054;19;20006;-72
2024/04/07 03:40:53;;;;;;;1.77;0.90;;;;;;;19.13;50.16;98164.00;6101268;19;20023;-72
2024/04/07 03:42:54;;;;;;;6.80;1.20;;;;;;;19.00;51.13;98161.94;6100710;19;20010;-72
2024/04/07 03:44:54;;;;;;;1.67;1.00;;;;;;;18.88;50.62;98165.47;6099804;19;20043;-72
2024/04/07 03:46:57;;;;;;;1.70;1.10;;;;;;;18.91;51.81;98170.19;6099983;19;20010;-72
2024/04/07 03:48:58;;;;;;;;;;;;;;;18.82;52.38;98172.06;6100933;19;20408;-72
2024/04/07 03:50:58;;;;;;;1.30;1.00;;;;;;;18.91;52.71;98152.59;6101014;19;19998;-71
2024/04/07 03:52:58;;;;;;;3.00;1.20;;;;;;;18.97;52.54;98159.22;6100281;19;20082;-72
2024/04/07 03:54:59;;;;;;;2.03;1.00;;;;;;;18.76;58.80;98154.97;6100497;19;20006;-71
2024/04/07 03:56:59;;;;;;;2.60;1.20;;;;;;;18.52;55.00;98151.56;6100250;19;19999;-71
2024/04/07 03:58:59;;;;;;;5.35;1.50;;;;;;;18.36;55.08;98143.94;6099520;19;20007;-71
2024/04/07 04:01:01;;;;;;;4.13;1.10;;;;;;;18.28;59.16;98150.16;6099308;19;20002;-71
2024/04/07 04:03:02;;;;;;;2.05;1.30;;;;;;;18.15;61.26;98150.88;6100874;19;20327;-71
2024/04/07 04:05:03;;;;;;;2.40;1.17;;;;;;;18.01;58.09;98147.63;6100207;19;20340;-71
2024/04/07 04:07:03;;;;;;;3.67;1.30;;;;;;;17.92;65.17;98151.03;6099988;19;19995;-71
2024/04/07 04:09:05;;;;;;;5.97;1.52;;;;;;;17.81;61.29;98156.88;6097092;19;19999;-71
2024/04/07 04:11:07;;;;;;;3.90;1.27;;;;;;;17.66;62.64;98161.97;6100422;19;20042;-71
2024/04/07 04:13:07;;;;;;;6.28;1.58;;;;;;;17.50;64.25;98166.72;6099513;19;20263;-71
2024/04/07 04:15:07;;;;;;;3.63;1.38;;;;;;;17.32;67.50;98159.50;6096939;19;20487;-71
2024/04/07 04:17:07;;;;;;;6.82;1.70;;;;;;;17.17;68.38;98163.00;6106310;19;20002;-71
2024/04/07 04:19:09;;;;;;;2.88;1.13;;;;;;;17.02;69.55;98168.09;6106690;19;19998;-71
2024/04/07 04:21:10;;;;;;;3.10;1.23;;;;;;;16.90;70.84;98161.13;6106300;19;20011;-71
2024/04/07 04:23:11;;;;;;;4.97;1.50;;;;;;;16.90;75.81;98179.91;6106905;19;20003;-71
2024/04/07 04:25:11;;;;;;;3.53;1.30;;;;;;;16.79;70.97;98169.69;6107344;19;20539;-71
2024/04/07 04:27:11;;;;;;;3.15;1.33;;;;;;;16.73;71.04;98174.22;6105996;19;20317;-71
2024/04/07 04:29:13;;;;;;;2.55;1.15;;;;;;;16.67;70.21;98172.31;6104756;19;20026;-71
2024/04/07 04:31:13;;;;;;;1.95;1.17;;;;;;;16.61;69.57;98180.38;6112563;19;19998;-71
2024/04/07 04:33:13;;;;;;;4.75;1.40;;;;;;;16.57;70.54;98186.03;6112829;19;20010;-71
2024/04/07 04:35:14;;;;;;;2.40;1.40;;;;;;;16.46;74.18;98188.19;6111940;19;20010;-71
2024/04/07 04:37:14;;;;;;;3.05;1.38;;;;;;;16.33;73.74;98190.03;6111441;19;20034;-71
2024/04/07 04:39:15;;;;;;;3.20;1.42;;;;;;;16.21;73.63;98196.97;6111912;19;20034;-71
2024/04/07 04:41:15;;;;;;;2.65;1.13;;;;;;;16.13;76.08;98187.13;6111146;19;20007;-71
2024/04/07 04:43:18;;;;;;;2.85;1.30;;;;;;;16.07;75.19;98197.22;6112048;19;20027;-71
2024/04/07 04:45:19;;;;;;;4.68;1.40;;;;;;;16.01;77.41;98199.69;6110534;19;20017;-71
2024/04/07 04:47:19;;;;;;;2.67;1.30;;;;;;;15.96;76.76;98194.56;6110682;19;20011;-71
2024/04/07 04:49:19;;;;;;;2.38;1.35;;;;;;;15.94;79.01;98204.56;6110891;19;20676;-71
2024/04/07 04:51:20;;;;;;;5.65;1.30;;;;;;;15.93;79.16;98209.34;6112646;19;20006;-71
2024/04/07 04:53:20;;;;;;;2.85;1.23;;;;;;;15.90;78.56;98213.00;6111962;19;20461;-71
2024/04/07 04:55:20;;;;;;;2.35;1.30;;;;;;;15.89;82.79;98213.44;6111545;19;20278;-71
2024/04/07 04:57:21;;;;;;;2.40;1.52;;;;;;;15.86;82.58;98214.25;6110221;19;20006;-71
2024/04/07 04:59:21;;;;;;;2.40;1.15;;;;;;;15.86;86.87;98217.03;6111533;19;20010;-71
2024/04/07 05:01:22;;;;;;;2.25;1.17;;;;;;;15.82;84.88;98217.09;6111538;19;20017;-71
2024/04/07 05:03:25;;;;;;;1.75;1.27;;;;;;;15.83;81.54;98218.66;6111529;19;20059;-71
2024/04/07 05:05:26;;;;;;;2.45;1.27;;;;;;;15.85;82.01;98232.97;6111264;19;20014;-71
2024/04/07 05:07:26;;;;;;;2.67;1.30;;;;;;;15.83;79.36;98232.63;6111087;19;20082;-71
2024/04/07 05:09:27;;;;;;;7.18;1.55;;;;;;;15.87;84.26;98241.72;6108981;19;20028;-71
2024/04/07 05:11:27;;;;;;;2.22;1.20;;;;;;;15.83;86.47;98243.78;6110467;19;20014;-71
2024/04/07 05:13:27;;;;;;;6.13;1.85;;;;;;;15.83;82.93;98237.41;6111778;19;20011;-71
2024/04/07 05:15:28;;;;;;;2.15;1.30;;;;;;;15.85;85.58;98244.16;6110382;19;20017;-71
2024/04/07 05:17:28;;;;;;;4.00;1.80;;;;;;;15.85;82.73;98248.94;6110775;19;21223;-71
2024/04/07 05:19:28;;;;;;;4.97;1.83;;;;;;;15.89;79.80;98235.75;6111004;19;20018;-71
2024/04/07 05:21:29;;;;;;;2.80;1.20;;;;;;;15.92;89.70;98248.84;6110355;19;20010;-71
2024/04/07 05:23:29;;;;;;;3.75;1.65;;;;;;;15.97;83.43;98246.38;6110657;19;20014;-71
2024/04/07 05:25:30;;;;;;;2.30;1.55;;;;;;;15.92;83.18;98251.63;6111370;19;20023;-71
2024/04/07 05:27:32;;;;;;;5.00;1.63;;;;;;;15.89;81.96;98249.69;6110704;19;20330;-71
2024/04/07 05:29:32;;;;;;;;;;;;;;;15.87;82.90;98255.66;6110855;19;20006;-71
2024/04/07 05:31:33;;;;;;;3.30;1.40;;;;;;;15.82;82.42;98245.00;6110538;19;20375;-71
2024/04/07 05:33:33;;;;;;;9.05;1.52;;;;;;;15.79;83.47;98254.19;6111208;19;20259;-71
2024/04/07 05:35:34;;;;;;;2.10;1.35;;;;;;;15.77;83.72;98256.59;6111025;19;20098;-71
2024/04/07 05:37:34;;;;;;;3.90;1.55;;;;;;;15.73;87.46;98261.44;6110251;19;20010;-71
2024/04/07 05:39:35;;;;;;;3.28;1.50;;;;;;;15.69;87.77;98269.06;6109368;19;20003;-71
2024/04/07 05:41:35;;;;;;;6.57;1.75;;;;;;;15.66;90.09;98258.75;6110540;19;21453;-71
2024/04/07 05:43:35;;;;;;;5.47;1.55;;;;;;;15.80;90.46;98266.13;6110339;19;20009;-71
2024/04/07 05:45:37;;;;;;;2.47;1.50;;;;;;;15.85;85.62;98268.47;6110651;19;20467;-71
2024/04/07 05:47:38;;;;;;;2.75;1.50;;;;;;;15.93;84.12;98275.53;6101136;19;26125;-71
2024/04/07 05:49:38;;;;;;;2.20;1.35;;;;;;;16.00;82.27;98278.22;6104125;19;20006;-71
2024/04/07 05:51:38;;;;;;;2.65;1.52;;;;;;;16.05;84.49;98282.53;6109657;19;20006;-71
2024/04/07 05:53:38;;;;;;;2.03;1.20;;;;;;;16.06;87.90;98275.78;6110920;19;20408;-72
2024/04/07 05:55:39;;;;;;;4.20;1.63;;;;;;;16.09;86.07;98281.28;6108467;19;20074;-71
2024/04/07 05:57:39;;;;;;;4.10;1.95;;;;;;;16.16;87.13;98292.38;6108659;19;20033;-71
2024/04/07 05:59:39;;;;;;;3.38;1.50;;;;;;;16.22;80.71;98296.28;6095436;19;20025;-71
2024/04/07 06:01:40;;;;;;;4.18;1.45;;;;;;;16.29;80.76;98306.53;6105809;19;20471;-71
2024/04/07 06:03:40;;;;;;;4.40;1.40;;;;;;;16.36;83.58;98300.84;6109940;19;20034;-71
2024/04/07 06:05:40;;;;;;;4.65;1.80;;;;;;;16.35;88.04;98313.22;6110311;19;20006;-71
2024/04/07 06:07:41;;;;;;;5.80;1.65;;;;;;;16.32;86.59;98300.13;6109238;19;20377;-71
2024/04/07 06:09:41;;;;;;;6.80;1.98;;;;;;;16.37;86.87;98310.00;6097422;19;20455;-71
2024/04/07 06:11:41;;;;;;;13.48;1.80;;;;;;;16.42;90.87;98306.75;6103859;19;20014;-71
2024/04/07 06:13:42;;;;;;;3.92;1.40;;;;;;;16.47;84.09;98309.09;6109484;19;20394;-71
2024/04/07 06:15:42;;;;;;;5.10;1.65;;;;;;;16.50;84.62;98313.81;6108860;19;20014;-71
2024/04/07 06:17:46;;;;;;;4.93;1.95;;;;;;;16.53;88.02;98326.91;6108053;19;20243;-71
2024/04/07 06:19:46;;;;;;;2.75;1.60;;;;;;;16.54;85.73;98322.91;6091410;19;20021;-71
2024/04/07 06:21:46;;;;;;;3.40;1.50;;;;;;;16.58;84.90;98324.44;6098414;19;20328;-71
2024/04/07 06:23:47;;;;;;;6.78;1.77;;;;;;;16.61;87.56;98322.03;6098378;19;20006;-72
2024/04/07 06:25:48;;;;;;;4.25;1.70;;;;;;;16.60;85.73;98329.63;6108544;19;20003;-72
2024/04/07 06:27:48;;;;;;;5.60;2.03;;;;;;;16.60;86.38;98317.66;6107921;19;20006;-71
2024/04/07 06:29:49;;;;;;;2.95;1.80;;;;;;;16.57;88.72;98328.47;6108206;19;20110;-71
2024/04/07 06:31:49;;;;;;;6.13;2.55;;;;;;;16.55;88.58;98330.09;6109019;19;20585;-71
2024/04/07 06:33:50;;;;;;;4.55;1.90;;;;;;;16.58;86.10;98329.25;6108607;19;20030;-71
2024/04/07 06:35:50;;;;;;;4.03;1.63;;;;;;;16.66;80.57;98330.72;6108157;19;20625;-71
2024/04/07 06:37:50;;;;;;;2.42;1.55;;;;;;;16.74;85.29;98345.41;6108339;19;20010;-71
2024/04/07 06:39:51;;;;;;;4.57;1.83;;;;;;;16.83;79.37;98337.28;6107898;19;20006;-71
2024/04/07 06:41:51;;;;;;;3.30;1.75;;;;;;;17.04;77.13;98348.09;6109776;19;20007;-71
2024/04/07 06:43:51;;;;;;;2.88;1.50;;;;;;;17.47;70.60;98360.56;6109430;19;20009;-71
2024/04/07 06:45:52;;;;;;;2.63;1.50;;;;;;;17.65;70.39;98350.63;6107875;19;20284;-71
2024/04/07 06:47:52;;;;;;;3.35;2.10;;;;;;;17.79;69.17;98360.81;6107791;19;20317;-71
2024/04/07 06:49:54;;;;;;;6.03;1.50;;;;;;;17.93;70.03;98368.91;6096159;19;20006;-72
2024/04/07 06:51:55;;;;;;;5.80;2.03;;;;;;;17.99;68.94;98371.22;6106806;19;20010;-72
2024/04/07 06:53:55;;;;;;;2.70;1.40;;;;;;;18.13;68.84;98365.31;6108161;19;20007;-72
2024/04/07 06:55:55;;;;;;;5.65;1.70;;;;;;;18.19;68.94;98377.56;6109244;19;20320;-72
2024/04/07 06:57:56;;;;;;;2.35;1.60;;;;;;;18.21;68.01;98375.94;6108423;19;20021;-72
2024/04/07 06:59:56;;;;;;;4.22;1.60;;;;;;;18.27;68.78;98376.22;6107845;19;20010;-72
2024/04/07 07:01:56;;;;;;;2.75;1.50;;;;;;;18.33;69.15;98377.28;6108757;19;20488;-71
2024/04/07 07:03:57;;;;;;;3.15;1.65;;;;;;;18.30;69.88;98378.16;6108340;19;20003;-71
2024/04/07 07:05:58;;;;;;;3.42;1.55;;;;;;;18.29;69.86;98387.78;6108355;19;20062;-71
2024/04/07 07:07:59;;;;;;;4.22;1.70;;;;;;;18.24;70.45;98377.88;6108361;19;20006;-71
2024/04/07 07:09:59;;;;;;;6.07;1.88;;;;;;;18.30;71.59;98383.78;6107295;19;20017;-71
2024/04/07 07:11:59;;;;;;;3.33;1.60;;;;;;;18.29;73.01;98384.19;6108559;19;20086;-71
2024/04/07 07:14:00;;;;;;;3.47;1.65;;;;;;;18.29;72.38;98390.59;6108985;19;20526;-71
2024/04/07 07:16:00;;;;;;;3.03;1.50;;;;;;;18.33;72.81;98390.50;6097444;19;20088;-71
2024/04/07 07:18:01;;;;;;;4.40;1.48;;;;;;;18.39;71.18;98397.19;6107684;19;20017;-72
2024/04/07 07:20:01;;;;;;;5.50;1.73;;;;;;;18.45;71.11;98393.44;6107095;19;20011;-72
2024/04/07 07:22:02;;;;;;;3.50;1.70;;;;;;;18.56;69.28;98392.41;6107830;19;19999;-72
2024/04/07 07:24:02;;;;;;;3.45;1.23;;;;;;;18.66;72.44;98406.22;6107123;19;20023;-71
2024/04/07 07:26:03;;;;;;;4.20;2.20;;;;;;;18.74;69.30;98409.66;6106789;19;20344;-71
2024/04/07 07:28:04;;;;;;;3.78;1.45;;;;;;;18.77;69.89;98408.78;6106640;19;20344;-71
2024/04/07 07:30:04;;;;;;;6.60;2.03;;;;;;;18.83;71.45;98404.25;6105882;19;20031;-71
2024/04/07 07:32:06;;;;;;;6.22;2.03;;;;;;;18.94;70.69;98401.19;6106193;19;20002;-71
2024/04/07 07:34:08;;;;;;;2.83;1.58;;;;;;;19.00;71.68;98402.25;6092462;19;20097;-71
2024/04/07 07:36:08;;;;;;;3.35;1.60;;;;;;;19.09;66.55;98405.22;6098555;19;20010;-71
2024/04/07 07:38:08;;;;;;;5.15;1.80;;;;;;;19.16;66.88;98407.09;6104935;19;20013;-71
2024/04/07 07:40:09;;;;;;;2.58;1.40;;;;;;;19.20;67.96;98414.19;6107496;19;20394;-71
2024/04/07 07:42:10;;;;;;;2.45;1.60;;;;;;;19.21;69.10;98406.56;6107203;19;20007;-71
2024/04/07 07:44:11;;;;;;;7.75;1.83;;;;;;;19.21;68.80;98414.97;6107290;19;20007;-71
2024/04/07 07:46:11;;;;;;;5.00;1.80;;;;;;;19.23;67.83;98420.94;6107080;19;19999;-71
2024/04/07 07:48:11;;;;;;;3.50;1.73;;;;;;;19.26;69.08;98436.88;6106489;19;20397;-71
2024/04/07 07:50:12;;;;;;;7.05;2.17;;;;;;;19.34;70.71;98441.09;6106826;19;20007;-71
2024/04/07 07:52:12;;;;;;;4.00;1.67;;;;;;;19.40;72.38;98441.38;6103582;19;20010;-71
2024/04/07 07:54:13;;;;;;;3.97;1.40;;;;;;;19.54;69.52;98444.63;6106040;19;20025;-71
2024/04/07 07:56:13;;;;;;;2.70;1.70;;;;;;;19.70;68.90;98449.47;6107212;19;20026;-71
2024/04/07 07:58:14;;;;;;;6.65;1.60;;;;;;;19.82;69.31;98454.34;6104366;19;20014;-71
2024/04/07 08:00:14;;;;;;;4.65;1.80;;;;;;;19.91;68.54;98464.94;6106801;19;20234;-71
2024/04/07 08:02:16;;;;;;;4.05;1.45;;;;;;;19.97;67.96;98463.19;6106075;19;20006;-71
2024/04/07 08:04:16;;;;;;;5.72;1.50;;;;;;;20.04;68.69;98460.19;6108038;19;20017;-71
2024/04/07 08:06:17;;;;;;;6.55;1.63;;;;;;;20.07;66.76;98462.09;6111905;19;20518;-71
2024/04/07 08:08:17;;;;;;;5.72;1.80;;;;;;;20.10;68.10;98447.16;6111983;19;20007;-72
2024/04/07 08:10:17;;;;;;;4.82;1.80;;;;;;;20.15;68.03;98455.06;6111877;19;20395;-72
2024/04/07 08:12:18;;;;;;;3.20;1.77;;;;;;;20.23;67.88;98464.09;6113233;19;20017;-72
2024/04/07 08:14:19;;;;;;;4.65;1.30;;;;;;;20.32;66.44;98460.63;6113214;19;20020;-72
2024/04/07 08:16:20;;;;;;;5.73;1.40;;;;;;;20.40;70.35;98451.56;6106877;19;20016;-72
2024/04/07 08:18:20;;;;;;;4.75;1.55;;;;;;;20.47;64.63;98447.78;6102896;19;20006;-72
2024/04/07 08:20:20;;;;;;;4.07;1.52;;;;;;;20.51;64.39;98456.91;6104051;19;20222;-72
2024/04/07 08:22:20;;;;;;;2.88;1.98;;;;;;;20.53;66.45;98456.47;6101609;19;20031;-72
2024/04/07 08:24:21;;;;;;;7.03;2.85;;;;;;;20.50;65.24;98457.34;6104234;19;20066;-72
2024/04/07 08:26:21;;;;;;;2.83;1.27;;;;;;;20.48;66.11;98461.38;6103511;19;20006;-72
2024/04/07 08:28:21;;;;;;;3.65;1.45;;;;;;;20.67;66.90;98486.97;6103205;19;20017;-72
2024/04/07 08:30:22;;;;;;;5.95;1.63;;;;;;;20.71;68.51;98487.66;6104355;19;20082;-72
2024/04/07 08:32:22;;;;;;;5.18;1.50;;;;;;;20.73;67.23;98488.00;6104069;19;20401;-72
2024/04/07 08:34:22;;;;;;;3.85;1.70;;;;;;;20.71;66.65;98487.66;6104510;19;20046;-72
2024/04/07 08:36:23;;;;;;;3.22;1.70;;;;;;;20.76;67.33;98498.34;6102844;19;20078;-72
2024/04/07 08:38:23;;;;;;;3.00;1.48;;;;;;;20.91;67.28;98493.09;6102096;19;20003;-72
2024/04/07 08:40:25;;;;;;;10.45;1.98;;;;;;;20.86;68.62;98502.88;6103683;19;20011;-71
2024/04/07 08:42:27;;;;;;;4.73;1.67;;;;;;;20.84;68.97;98502.50;6103960;19;20016;-71
2024/04/07 08:44:31;;;;;;;3.72;1.50;;;;;;;20.89;65.75;98513.22;6103146;19;20243;-72
2024/04/07 08:46:36;;;;;;;4.07;1.80;;;;;;;20.93;69.40;98518.72;6101704;19;20014;-72
2024/04/07 08:48:39;;;;;;;3.92;1.70;;;;;;;20.96;66.99;98521.44;6101136;19;20006;-72
2024/04/07 08:50:40;;;;;;;4.75;2.13;;;;;;;21.06;68.58;98518.75;6103207;19;20454;-71
2024/04/07 08:52:43;;;;;;;5.22;2.30;;;;;;;21.16;72.12;98523.28;6103753;19;20014;-71
2024/04/07 08:54:43;;;;;;;11.15;6.95;;;;;;;21.17;70.61;98528.44;6102935;19;20006;-71
2024/04/07 08:56:44;;;;;;;4.30;1.60;;;;;;;21.18;69.24;98526.41;6102735;19;20371;-71
2024/04/07 08:58:45;;;;;;;4.10;1.50;;;;;;;21.18;68.18;98527.19;6099609;19;20006;-71
2024/04/07 09:00:50;;;;;;;10.68;1.73;;;;;;;21.12;68.40;98540.28;6101184;19;20355;-71
2024/04/07 09:02:54;;;;;;;2.97;1.20;;;;;;;21.14;67.36;98537.78;6101003;19;20035;-71
2024/04/07 09:04:54;;;;;;;2.60;1.42;;;;;;;21.23;67.85;98546.34;6101156;19;20010;-71
2024/04/07 09:06:55;;;;;;;4.40;1.73;;;;;;;21.22;64.60;98546.81;6100220;19;20254;-71
2024/04/07 09:08:57;;;;;;;4.88;1.42;;;;;;;21.12;67.55;98554.34;6099059;19;20010;-71
2024/04/07 09:10:57;;;;;;;5.80;1.60;;;;;;;21.04;66.24;98559.38;6099630;19;20014;-71
2024/04/07 09:12:58;;;;;;;6.68;2.53;;;;;;;20.99;66.85;98559.94;6101494;19;20681;-71
2024/04/07 09:14:59;;;;;;;3.53;1.70;;;;;;;21.00;66.25;98555.88;6101163;19;20011;-71
2024/04/07 09:17:06;;;;;;;2.42;1.35;;;;;;;20.95;68.23;98561.28;6107155;19;20492;-71
2024/04/07 09:19:06;;;;;;;7.60;1.50;;;;;;;21.01;67.97;98556.66;6109188;19;20011;-72
2024/04/07 09:21:21;;;;;;;3.88;1.38;;;;;;;21.01;65.85;98562.28;6110024;19;20501;-72
2024/04/07 09:23:22;;;;;;;4.05;1.80;;;;;;;21.05;67.36;98560.16;6109591;19;20010;-72
2024/04/07 09:25:23;;;;;;;5.82;3.25;;;;;;;21.15;68.12;98581.56;6107835;19;20443;-72
2024/04/07 09:27:23;;;;;;;6.68;3.25;;;;;;;21.18;67.55;98579.88;6109569;19;20469;-72
2024/04/07 09:29:24;;;;;;;5.35;1.70;;;;;;;21.14;64.67;98587.66;6109905;19;20275;-72
2024/04/07 09:31:24;;;;;;;5.97;1.67;;;;;;;21.26;66.28;98590.47;6109606;19;20015;-72